sensor_id;sensor_type;location;lat;lon;timestamp;P1;durP1;ratioP1;P2;durP2;ratioP2
78648;SDS011;67962;47.310;9.642;2023-12-20T00:01:00;16.45;;;8.18;;
78648;SDS011;67962;47.310;9.642;2023-12-20T00:03:26;16.42;;;8.27;;
78648;SDS011;67962;47.310;9.642;2023-12-20T00:05:52;13.50;;;7.63;;
78648;SDS011;67962;47.310;9.642;2023-12-20T00:08:17;11.95;;;6.80;;
78648;SDS011;67962;47.310;9.642;2023-12-20T00:10:43;13.18;;;7.53;;
78648;SDS011;67962;47.310;9.642;2023-12-20T00:13:09;13.63;;;7.60;;
78648;SDS011;67962;47.310;9.642;2023-12-20T00:15:35;15.70;;;7.80;;
78648;SDS011;67962;47.310;9.642;2023-12-20T00:18:01;10.13;;;6.57;;
78648;SDS011;67962;47.310;9.642;2023-12-20T00:20:28;10.85;;;7.47;;
78648;SDS011;67962;47.310;9.642;2023-12-20T00:22:55;11.20;;;7.28;;
78648;SDS011;67962;47.310;9.642;2023-12-20T00:25:24;14.07;;;7.68;;
78648;SDS011;67962;47.310;9.642;2023-12-20T00:27:52;11.82;;;7.22;;
78648;SDS011;67962;47.310;9.642;2023-12-20T00:30:17;11.57;;;7.05;;
78648;SDS011;67962;47.310;9.642;2023-12-20T00:32:43;13.07;;;7.63;;
78648;SDS011;67962;47.310;9.642;2023-12-20T00:35:14;10.35;;;7.30;;
78648;SDS011;67962;47.310;9.642;2023-12-20T00:37:40;11.88;;;7.63;;
78648;SDS011;67962;47.310;9.642;2023-12-20T00:40:06;17.33;;;7.53;;
78648;SDS011;67962;47.310;9.642;2023-12-20T00:42:32;13.02;;;7.82;;
78648;SDS011;67962;47.310;9.642;2023-12-20T00:44:58;10.43;;;7.13;;
78648;SDS011;67962;47.310;9.642;2023-12-20T00:47:25;12.00;;;7.20;;
78648;SDS011;67962;47.310;9.642;2023-12-20T00:49:51;11.77;;;6.97;;
78648;SDS011;67962;47.310;9.642;2023-12-20T00:52:17;12.07;;;7.10;;
78648;SDS011;67962;47.310;9.642;2023-12-20T00:54:43;11.43;;;7.10;;
78648;SDS011;67962;47.310;9.642;2023-12-20T00:57:09;12.73;;;7.63;;
78648;SDS011;67962;47.310;9.642;2023-12-20T00:59:35;13.93;;;7.68;;
78648;SDS011;67962;47.310;9.642;2023-12-20T01:02:01;11.93;;;7.45;;
78648;SDS011;67962;47.310;9.642;2023-12-20T01:04:27;12.70;;;7.25;;
78648;SDS011;67962;47.310;9.642;2023-12-20T01:06:53;13.30;;;7.88;;
78648;SDS011;67962;47.310;9.642;2023-12-20T01:09:19;12.75;;;6.90;;
78648;SDS011;67962;47.310;9.642;2023-12-20T01:11:44;12.93;;;7.05;;
78648;SDS011;67962;47.310;9.642;2023-12-20T01:14:13;11.73;;;7.35;;
78648;SDS011;67962;47.310;9.642;2023-12-20T01:16:38;12.68;;;6.97;;
78648;SDS011;67962;47.310;9.642;2023-12-20T01:19:04;9.75;;;6.63;;
78648;SDS011;67962;47.310;9.642;2023-12-20T01:21:30;11.05;;;6.82;;
78648;SDS011;67962;47.310;9.642;2023-12-20T01:23:55;12.40;;;7.32;;
78648;SDS011;67962;47.310;9.642;2023-12-20T01:26:21;11.27;;;7.00;;
78648;SDS011;67962;47.310;9.642;2023-12-20T01:28:47;12.88;;;7.05;;
78648;SDS011;67962;47.310;9.642;2023-12-20T01:31:12;10.63;;;7.00;;
78648;SDS011;67962;47.310;9.642;2023-12-20T01:33:38;9.95;;;6.18;;
78648;SDS011;67962;47.310;9.642;2023-12-20T01:36:04;10.43;;;6.57;;
78648;SDS011;67962;47.310;9.642;2023-12-20T01:38:29;10.70;;;6.32;;
78648;SDS011;67962;47.310;9.642;2023-12-20T01:40:55;10.30;;;6.53;;
78648;SDS011;67962;47.310;9.642;2023-12-20T01:43:21;12.13;;;7.20;;
78648;SDS011;67962;47.310;9.642;2023-12-20T01:45:47;12.15;;;7.88;;
78648;SDS011;67962;47.310;9.642;2023-12-20T01:48:13;16.27;;;8.38;;
78648;SDS011;67962;47.310;9.642;2023-12-20T01:50:40;12.63;;;7.57;;
78648;SDS011;67962;47.310;9.642;2023-12-20T01:53:08;10.80;;;6.47;;
78648;SDS011;67962;47.310;9.642;2023-12-20T01:55:37;12.48;;;7.60;;
78648;SDS011;67962;47.310;9.642;2023-12-20T01:58:04;13.73;;;6.95;;
78648;SDS011;67962;47.310;9.642;2023-12-20T02:00:34;10.57;;;6.70;;
78648;SDS011;67962;47.310;9.642;2023-12-20T02:03:01;12.38;;;7.45;;
78648;SDS011;67962;47.310;9.642;2023-12-20T02:05:27;13.20;;;6.63;;
78648;SDS011;67962;47.310;9.642;2023-12-20T02:07:57;11.10;;;7.03;;
78648;SDS011;67962;47.310;9.642;2023-12-20T02:10:23;9.20;;;6.45;;
78648;SDS011;67962;47.310;9.642;2023-12-20T02:12:50;13.75;;;7.78;;
78648;SDS011;67962;47.310;9.642;2023-12-20T02:15:15;12.52;;;7.60;;
78648;SDS011;67962;47.310;9.642;2023-12-20T02:17:42;14.43;;;7.32;;
78648;SDS011;67962;47.310;9.642;2023-12-20T02:20:09;13.45;;;8.02;;
78648;SDS011;67962;47.310;9.642;2023-12-20T02:22:34;11.82;;;6.97;;
78648;SDS011;67962;47.310;9.642;2023-12-20T02:25:00;13.63;;;7.85;;
78648;SDS011;67962;47.310;9.642;2023-12-20T02:27:26;12.70;;;7.30;;
78648;SDS011;67962;47.310;9.642;2023-12-20T02:29:54;11.27;;;7.40;;
78648;SDS011;67962;47.310;9.642;2023-12-20T02:32:20;13.80;;;8.00;;
78648;SDS011;67962;47.310;9.642;2023-12-20T02:34:47;12.05;;;7.43;;
78648;SDS011;67962;47.310;9.642;2023-12-20T02:37:13;10.15;;;7.38;;
78648;SDS011;67962;47.310;9.642;2023-12-20T02:39:39;12.23;;;7.72;;
78648;SDS011;67962;47.310;9.642;2023-12-20T02:42:05;12.25;;;7.40;;
78648;SDS011;67962;47.310;9.642;2023-12-20T02:44:30;11.40;;;7.30;;
78648;SDS011;67962;47.310;9.642;2023-12-20T02:46:56;10.50;;;6.57;;
78648;SDS011;67962;47.310;9.642;2023-12-20T02:49:22;11.35;;;6.95;;
78648;SDS011;67962;47.310;9.642;2023-12-20T02:51:47;11.77;;;7.28;;
78648;SDS011;67962;47.310;9.642;2023-12-20T02:54:13;10.80;;;7.25;;
78648;SDS011;67962;47.310;9.642;2023-12-20T02:56:39;14.35;;;8.02;;
78648;SDS011;67962;47.310;9.642;2023-12-20T02:59:05;9.90;;;6.70;;
78648;SDS011;67962;47.310;9.642;2023-12-20T03:01:31;12.85;;;7.20;;
78648;SDS011;67962;47.310;9.642;2023-12-20T03:03:57;11.88;;;7.97;;
78648;SDS011;67962;47.310;9.642;2023-12-20T03:06:22;11.93;;;7.78;;
78648;SDS011;67962;47.310;9.642;2023-12-20T03:08:49;11.55;;;7.68;;
78648;SDS011;67962;47.310;9.642;2023-12-20T03:11:15;11.20;;;7.63;;
78648;SDS011;67962;47.310;9.642;2023-12-20T03:13:40;10.70;;;6.85;;
78648;SDS011;67962;47.310;9.642;2023-12-20T03:16:09;10.88;;;6.85;;
78648;SDS011;67962;47.310;9.642;2023-12-20T03:18:36;16.50;;;8.82;;
78648;SDS011;67962;47.310;9.642;2023-12-20T03:21:02;13.35;;;8.07;;
78648;SDS011;67962;47.310;9.642;2023-12-20T03:23:29;12.45;;;7.80;;
78648;SDS011;67962;47.310;9.642;2023-12-20T03:25:55;10.77;;;7.07;;
78648;SDS011;67962;47.310;9.642;2023-12-20T03:28:21;11.07;;;7.00;;
78648;SDS011;67962;47.310;9.642;2023-12-20T03:30:48;9.95;;;7.28;;
78648;SDS011;67962;47.310;9.642;2023-12-20T03:33:13;12.35;;;7.00;;
78648;SDS011;67962;47.310;9.642;2023-12-20T03:35:39;12.43;;;7.15;;
78648;SDS011;67962;47.310;9.642;2023-12-20T03:38:05;11.15;;;7.50;;
78648;SDS011;67962;47.310;9.642;2023-12-20T03:40:31;11.63;;;6.95;;
78648;SDS011;67962;47.310;9.642;2023-12-20T03:42:56;14.45;;;7.22;;
78648;SDS011;67962;47.310;9.642;2023-12-20T03:45:22;24.42;;;10.57;;
78648;SDS011;67962;47.310;9.642;2023-12-20T03:47:48;16.30;;;8.30;;
78648;SDS011;67962;47.310;9.642;2023-12-20T03:50:14;12.27;;;7.63;;
78648;SDS011;67962;47.310;9.642;2023-12-20T03:52:40;13.00;;;7.55;;
78648;SDS011;67962;47.310;9.642;2023-12-20T03:55:06;14.75;;;8.27;;
78648;SDS011;67962;47.310;9.642;2023-12-20T03:57:31;14.70;;;8.50;;
78648;SDS011;67962;47.310;9.642;2023-12-20T03:59:57;12.45;;;7.97;;
78648;SDS011;67962;47.310;9.642;2023-12-20T04:02:23;11.00;;;7.18;;
78648;SDS011;67962;47.310;9.642;2023-12-20T04:04:48;8.15;;;6.05;;
78648;SDS011;67962;47.310;9.642;2023-12-20T04:07:14;12.15;;;7.93;;
78648;SDS011;67962;47.310;9.642;2023-12-20T04:09:40;12.07;;;8.10;;
78648;SDS011;67962;47.310;9.642;2023-12-20T04:12:06;14.32;;;8.18;;
78648;SDS011;67962;47.310;9.642;2023-12-20T04:14:32;9.18;;;7.15;;
78648;SDS011;67962;47.310;9.642;2023-12-20T04:16:58;11.48;;;7.78;;
78648;SDS011;67962;47.310;9.642;2023-12-20T04:19:24;11.73;;;7.45;;
78648;SDS011;67962;47.310;9.642;2023-12-20T04:21:49;13.82;;;7.57;;
78648;SDS011;67962;47.310;9.642;2023-12-20T04:24:15;13.15;;;7.90;;
78648;SDS011;67962;47.310;9.642;2023-12-20T04:26:41;12.00;;;7.32;;
78648;SDS011;67962;47.310;9.642;2023-12-20T04:29:06;11.38;;;7.70;;
78648;SDS011;67962;47.310;9.642;2023-12-20T04:31:32;11.23;;;7.05;;
78648;SDS011;67962;47.310;9.642;2023-12-20T04:33:58;15.73;;;7.40;;
78648;SDS011;67962;47.310;9.642;2023-12-20T04:36:23;14.02;;;7.60;;
78648;SDS011;67962;47.310;9.642;2023-12-20T04:38:51;12.88;;;8.23;;
78648;SDS011;67962;47.310;9.642;2023-12-20T04:41:18;10.38;;;7.72;;
78648;SDS011;67962;47.310;9.642;2023-12-20T04:43:44;10.40;;;7.32;;
78648;SDS011;67962;47.310;9.642;2023-12-20T04:46:09;10.95;;;7.32;;
78648;SDS011;67962;47.310;9.642;2023-12-20T04:48:35;13.52;;;8.07;;
78648;SDS011;67962;47.310;9.642;2023-12-20T04:51:01;11.85;;;7.90;;
78648;SDS011;67962;47.310;9.642;2023-12-20T04:53:27;9.65;;;7.30;;
78648;SDS011;67962;47.310;9.642;2023-12-20T04:55:53;11.02;;;6.90;;
78648;SDS011;67962;47.310;9.642;2023-12-20T04:58:18;11.40;;;7.32;;
78648;SDS011;67962;47.310;9.642;2023-12-20T05:00:44;11.48;;;7.10;;
78648;SDS011;67962;47.310;9.642;2023-12-20T05:03:10;9.05;;;6.45;;
78648;SDS011;67962;47.310;9.642;2023-12-20T05:05:35;9.13;;;6.68;;
78648;SDS011;67962;47.310;9.642;2023-12-20T05:08:01;12.68;;;6.78;;
78648;SDS011;67962;47.310;9.642;2023-12-20T05:10:27;9.88;;;6.90;;
78648;SDS011;67962;47.310;9.642;2023-12-20T05:12:53;11.85;;;6.30;;
78648;SDS011;67962;47.310;9.642;2023-12-20T05:15:18;8.35;;;5.60;;
78648;SDS011;67962;47.310;9.642;2023-12-20T05:17:44;9.00;;;5.57;;
78648;SDS011;67962;47.310;9.642;2023-12-20T05:20:10;9.48;;;5.90;;
78648;SDS011;67962;47.310;9.642;2023-12-20T05:22:35;7.65;;;4.35;;
78648;SDS011;67962;47.310;9.642;2023-12-20T05:25:01;5.57;;;3.95;;
78648;SDS011;67962;47.310;9.642;2023-12-20T05:27:27;7.43;;;4.95;;
78648;SDS011;67962;47.310;9.642;2023-12-20T05:29:52;9.38;;;4.80;;
78648;SDS011;67962;47.310;9.642;2023-12-20T05:32:22;8.30;;;4.38;;
78648;SDS011;67962;47.310;9.642;2023-12-20T05:34:48;6.53;;;4.50;;
78648;SDS011;67962;47.310;9.642;2023-12-20T05:37:14;4.13;;;3.08;;
78648;SDS011;67962;47.310;9.642;2023-12-20T05:39:39;3.72;;;2.63;;
78648;SDS011;67962;47.310;9.642;2023-12-20T05:42:05;5.72;;;2.63;;
78648;SDS011;67962;47.310;9.642;2023-12-20T05:44:31;6.13;;;4.22;;
78648;SDS011;67962;47.310;9.642;2023-12-20T05:46:56;4.97;;;3.20;;
78648;SDS011;67962;47.310;9.642;2023-12-20T05:49:22;6.47;;;4.03;;
78648;SDS011;67962;47.310;9.642;2023-12-20T05:51:48;4.07;;;2.70;;
78648;SDS011;67962;47.310;9.642;2023-12-20T05:54:15;11.68;;;6.22;;
78648;SDS011;67962;47.310;9.642;2023-12-20T05:56:41;16.88;;;9.10;;
78648;SDS011;67962;47.310;9.642;2023-12-20T05:59:06;3.25;;;2.28;;
78648;SDS011;67962;47.310;9.642;2023-12-20T06:01:32;4.30;;;3.42;;
78648;SDS011;67962;47.310;9.642;2023-12-20T06:03:57;3.60;;;2.70;;
78648;SDS011;67962;47.310;9.642;2023-12-20T06:06:23;3.45;;;2.60;;
78648;SDS011;67962;47.310;9.642;2023-12-20T06:08:49;3.72;;;2.70;;
78648;SDS011;67962;47.310;9.642;2023-12-20T06:11:15;2.75;;;1.92;;
78648;SDS011;67962;47.310;9.642;2023-12-20T06:13:40;3.63;;;2.30;;
78648;SDS011;67962;47.310;9.642;2023-12-20T06:16:06;3.38;;;2.60;;
78648;SDS011;67962;47.310;9.642;2023-12-20T06:18:35;3.40;;;2.40;;
78648;SDS011;67962;47.310;9.642;2023-12-20T06:21:02;6.30;;;4.00;;
78648;SDS011;67962;47.310;9.642;2023-12-20T06:23:28;3.33;;;2.63;;
78648;SDS011;67962;47.310;9.642;2023-12-20T06:25:53;6.68;;;3.55;;
78648;SDS011;67962;47.310;9.642;2023-12-20T06:28:19;9.93;;;5.78;;
78648;SDS011;67962;47.310;9.642;2023-12-20T06:30:44;5.70;;;3.85;;
78648;SDS011;67962;47.310;9.642;2023-12-20T06:33:12;7.25;;;4.55;;
78648;SDS011;67962;47.310;9.642;2023-12-20T06:35:38;13.63;;;7.80;;
78648;SDS011;67962;47.310;9.642;2023-12-20T06:38:04;7.45;;;4.72;;
78648;SDS011;67962;47.310;9.642;2023-12-20T06:40:29;7.95;;;5.03;;
78648;SDS011;67962;47.310;9.642;2023-12-20T06:42:55;7.55;;;4.25;;
78648;SDS011;67962;47.310;9.642;2023-12-20T06:45:21;6.80;;;5.05;;
78648;SDS011;67962;47.310;9.642;2023-12-20T06:47:46;3.25;;;2.40;;
78648;SDS011;67962;47.310;9.642;2023-12-20T06:50:12;3.17;;;2.20;;
78648;SDS011;67962;47.310;9.642;2023-12-20T06:52:38;3.75;;;1.98;;
78648;SDS011;67962;47.310;9.642;2023-12-20T06:55:03;2.47;;;1.95;;
78648;SDS011;67962;47.310;9.642;2023-12-20T06:57:29;2.20;;;1.63;;
78648;SDS011;67962;47.310;9.642;2023-12-20T06:59:55;4.10;;;2.35;;
78648;SDS011;67962;47.310;9.642;2023-12-20T07:02:21;3.13;;;1.83;;
78648;SDS011;67962;47.310;9.642;2023-12-20T07:04:47;3.45;;;2.08;;
78648;SDS011;67962;47.310;9.642;2023-12-20T07:07:13;2.95;;;1.50;;
78648;SDS011;67962;47.310;9.642;2023-12-20T07:09:38;4.97;;;3.00;;
78648;SDS011;67962;47.310;9.642;2023-12-20T07:12:06;7.75;;;4.68;;
78648;SDS011;67962;47.310;9.642;2023-12-20T07:14:31;13.55;;;7.28;;
78648;SDS011;67962;47.310;9.642;2023-12-20T07:16:57;19.52;;;8.73;;
78648;SDS011;67962;47.310;9.642;2023-12-20T07:19:23;22.70;;;10.13;;
78648;SDS011;67962;47.310;9.642;2023-12-20T07:21:48;22.15;;;9.02;;
78648;SDS011;67962;47.310;9.642;2023-12-20T07:24:14;19.90;;;7.47;;
78648;SDS011;67962;47.310;9.642;2023-12-20T07:26:40;21.65;;;7.57;;
78648;SDS011;67962;47.310;9.642;2023-12-20T07:29:06;23.50;;;11.07;;
78648;SDS011;67962;47.310;9.642;2023-12-20T07:31:31;20.75;;;9.80;;
78648;SDS011;67962;47.310;9.642;2023-12-20T07:33:57;17.10;;;7.95;;
78648;SDS011;67962;47.310;9.642;2023-12-20T07:36:23;20.50;;;9.88;;
78648;SDS011;67962;47.310;9.642;2023-12-20T07:38:49;17.30;;;8.63;;
78648;SDS011;67962;47.310;9.642;2023-12-20T07:41:14;22.63;;;10.13;;
78648;SDS011;67962;47.310;9.642;2023-12-20T07:43:46;23.52;;;10.18;;
78648;SDS011;67962;47.310;9.642;2023-12-20T07:46:11;27.10;;;12.93;;
78648;SDS011;67962;47.310;9.642;2023-12-20T07:48:37;21.50;;;12.98;;
78648;SDS011;67962;47.310;9.642;2023-12-20T07:51:04;26.55;;;13.93;;
78648;SDS011;67962;47.310;9.642;2023-12-20T07:53:32;20.98;;;10.65;;
78648;SDS011;67962;47.310;9.642;2023-12-20T07:55:58;19.70;;;9.45;;
78648;SDS011;67962;47.310;9.642;2023-12-20T07:58:24;25.02;;;11.98;;
78648;SDS011;67962;47.310;9.642;2023-12-20T08:00:49;27.70;;;13.93;;
78648;SDS011;67962;47.310;9.642;2023-12-20T08:03:15;22.42;;;13.10;;
78648;SDS011;67962;47.310;9.642;2023-12-20T08:05:41;18.05;;;9.80;;
78648;SDS011;67962;47.310;9.642;2023-12-20T08:08:07;22.75;;;11.30;;
78648;SDS011;67962;47.310;9.642;2023-12-20T08:10:32;24.23;;;12.27;;
78648;SDS011;67962;47.310;9.642;2023-12-20T08:12:58;18.17;;;9.48;;
78648;SDS011;67962;47.310;9.642;2023-12-20T08:15:24;20.75;;;10.75;;
78648;SDS011;67962;47.310;9.642;2023-12-20T08:17:49;18.25;;;10.88;;
78648;SDS011;67962;47.310;9.642;2023-12-20T08:20:18;22.35;;;12.00;;
78648;SDS011;67962;47.310;9.642;2023-12-20T08:22:44;16.70;;;9.23;;
78648;SDS011;67962;47.310;9.642;2023-12-20T08:25:09;18.00;;;10.27;;
78648;SDS011;67962;47.310;9.642;2023-12-20T08:27:41;19.90;;;10.75;;
78648;SDS011;67962;47.310;9.642;2023-12-20T08:30:10;17.52;;;10.20;;
78648;SDS011;67962;47.310;9.642;2023-12-20T08:32:36;18.60;;;9.90;;
78648;SDS011;67962;47.310;9.642;2023-12-20T08:35:01;22.38;;;13.07;;
78648;SDS011;67962;47.310;9.642;2023-12-20T08:37:27;22.63;;;11.65;;
78648;SDS011;67962;47.310;9.642;2023-12-20T08:39:54;10.63;;;5.07;;
78648;SDS011;67962;47.310;9.642;2023-12-20T08:42:20;20.00;;;10.98;;
78648;SDS011;67962;47.310;9.642;2023-12-20T08:44:46;22.95;;;11.70;;
78648;SDS011;67962;47.310;9.642;2023-12-20T08:47:12;20.08;;;11.27;;
78648;SDS011;67962;47.310;9.642;2023-12-20T08:49:40;21.77;;;11.38;;
78648;SDS011;67962;47.310;9.642;2023-12-20T08:52:06;23.10;;;13.13;;
78648;SDS011;67962;47.310;9.642;2023-12-20T08:54:32;27.75;;;14.65;;
78648;SDS011;67962;47.310;9.642;2023-12-20T08:56:57;26.15;;;14.73;;
78648;SDS011;67962;47.310;9.642;2023-12-20T08:59:23;27.50;;;14.32;;
78648;SDS011;67962;47.310;9.642;2023-12-20T09:01:49;20.20;;;13.07;;
78648;SDS011;67962;47.310;9.642;2023-12-20T09:04:19;23.63;;;13.70;;
78648;SDS011;67962;47.310;9.642;2023-12-20T09:06:45;18.60;;;11.43;;
78648;SDS011;67962;47.310;9.642;2023-12-20T09:09:11;16.70;;;9.95;;
78648;SDS011;67962;47.310;9.642;2023-12-20T09:11:38;21.63;;;11.65;;
78648;SDS011;67962;47.310;9.642;2023-12-20T09:14:04;19.65;;;10.32;;
78648;SDS011;67962;47.310;9.642;2023-12-20T09:16:30;18.95;;;10.70;;
78648;SDS011;67962;47.310;9.642;2023-12-20T09:18:56;23.58;;;11.77;;
78648;SDS011;67962;47.310;9.642;2023-12-20T09:21:22;19.40;;;9.80;;
78648;SDS011;67962;47.310;9.642;2023-12-20T09:23:48;16.90;;;10.88;;
78648;SDS011;67962;47.310;9.642;2023-12-20T09:26:13;20.38;;;11.70;;
78648;SDS011;67962;47.310;9.642;2023-12-20T09:28:39;18.05;;;11.13;;
78648;SDS011;67962;47.310;9.642;2023-12-20T09:31:05;17.95;;;11.38;;
78648;SDS011;67962;47.310;9.642;2023-12-20T09:33:31;26.20;;;14.15;;
78648;SDS011;67962;47.310;9.642;2023-12-20T09:36:00;27.33;;;16.23;;
78648;SDS011;67962;47.310;9.642;2023-12-20T09:38:26;24.33;;;11.15;;
78648;SDS011;67962;47.310;9.642;2023-12-20T09:40:51;19.48;;;11.32;;
78648;SDS011;67962;47.310;9.642;2023-12-20T09:43:19;19.80;;;13.77;;
78648;SDS011;67962;47.310;9.642;2023-12-20T09:45:48;26.70;;;16.40;;
78648;SDS011;67962;47.310;9.642;2023-12-20T09:48:18;21.35;;;13.18;;
78648;SDS011;67962;47.310;9.642;2023-12-20T09:50:45;28.50;;;14.75;;
78648;SDS011;67962;47.310;9.642;2023-12-20T09:53:11;21.50;;;14.70;;
78648;SDS011;67962;47.310;9.642;2023-12-20T09:55:40;28.05;;;15.25;;
78648;SDS011;67962;47.310;9.642;2023-12-20T09:58:07;23.25;;;14.43;;
78648;SDS011;67962;47.310;9.642;2023-12-20T10:00:34;29.50;;;17.02;;
78648;SDS011;67962;47.310;9.642;2023-12-20T10:03:00;24.55;;;13.70;;
78648;SDS011;67962;47.310;9.642;2023-12-20T10:05:30;28.17;;;15.18;;
78648;SDS011;67962;47.310;9.642;2023-12-20T10:07:57;22.98;;;11.75;;
78648;SDS011;67962;47.310;9.642;2023-12-20T10:10:24;18.85;;;9.75;;
78648;SDS011;67962;47.310;9.642;2023-12-20T10:13:02;13.90;;;8.77;;
78648;SDS011;67962;47.310;9.642;2023-12-20T10:15:33;14.32;;;9.48;;
78648;SDS011;67962;47.310;9.642;2023-12-20T10:18:00;17.70;;;10.30;;
78648;SDS011;67962;47.310;9.642;2023-12-20T10:20:26;16.08;;;10.93;;
78648;SDS011;67962;47.310;9.642;2023-12-20T10:22:54;12.98;;;8.27;;
78648;SDS011;67962;47.310;9.642;2023-12-20T10:25:20;12.43;;;7.72;;
78648;SDS011;67962;47.310;9.642;2023-12-20T10:27:47;15.35;;;8.95;;
78648;SDS011;67962;47.310;9.642;2023-12-20T10:30:13;14.00;;;8.82;;
78648;SDS011;67962;47.310;9.642;2023-12-20T10:32:39;11.43;;;7.90;;
78648;SDS011;67962;47.310;9.642;2023-12-20T10:35:06;15.77;;;9.60;;
78648;SDS011;67962;47.310;9.642;2023-12-20T10:37:35;17.60;;;9.38;;
78648;SDS011;67962;47.310;9.642;2023-12-20T10:40:05;16.50;;;9.32;;
78648;SDS011;67962;47.310;9.642;2023-12-20T10:42:31;18.83;;;8.98;;
78648;SDS011;67962;47.310;9.642;2023-12-20T10:44:59;14.63;;;10.30;;
78648;SDS011;67962;47.310;9.642;2023-12-20T10:47:25;21.55;;;10.68;;
78648;SDS011;67962;47.310;9.642;2023-12-20T10:49:54;16.02;;;8.95;;
78648;SDS011;67962;47.310;9.642;2023-12-20T10:52:22;18.83;;;8.43;;
78648;SDS011;67962;47.310;9.642;2023-12-20T10:54:49;18.08;;;8.82;;
78648;SDS011;67962;47.310;9.642;2023-12-20T10:57:15;18.30;;;8.90;;
78648;SDS011;67962;47.310;9.642;2023-12-20T10:59:44;14.18;;;9.73;;
78648;SDS011;67962;47.310;9.642;2023-12-20T11:02:14;21.38;;;10.25;;
78648;SDS011;67962;47.310;9.642;2023-12-20T11:04:56;15.40;;;8.80;;
78648;SDS011;67962;47.310;9.642;2023-12-20T11:07:39;20.80;;;9.75;;
78648;SDS011;67962;47.310;9.642;2023-12-20T11:10:31;14.07;;;9.48;;
78648;SDS011;67962;47.310;9.642;2023-12-20T11:15:30;14.73;;;8.85;;
78648;SDS011;67962;47.310;9.642;2023-12-20T11:17:56;23.90;;;10.10;;
78648;SDS011;67962;47.310;9.642;2023-12-20T11:20:23;14.70;;;9.40;;
78648;SDS011;67962;47.310;9.642;2023-12-20T11:22:53;11.60;;;8.20;;
78648;SDS011;67962;47.310;9.642;2023-12-20T11:25:19;11.15;;;7.10;;
78648;SDS011;67962;47.310;9.642;2023-12-20T11:27:46;12.32;;;7.45;;
78648;SDS011;67962;47.310;9.642;2023-12-20T11:30:41;15.07;;;7.88;;
78648;SDS011;67962;47.310;9.642;2023-12-20T11:33:08;13.68;;;7.55;;
78648;SDS011;67962;47.310;9.642;2023-12-20T11:35:34;12.45;;;7.40;;
78648;SDS011;67962;47.310;9.642;2023-12-20T11:38:01;12.18;;;7.35;;
78648;SDS011;67962;47.310;9.642;2023-12-20T11:40:27;13.98;;;7.70;;
78648;SDS011;67962;47.310;9.642;2023-12-20T11:42:53;13.77;;;8.27;;
78648;SDS011;67962;47.310;9.642;2023-12-20T11:45:21;15.55;;;10.00;;
78648;SDS011;67962;47.310;9.642;2023-12-20T11:47:51;12.48;;;7.30;;
78648;SDS011;67962;47.310;9.642;2023-12-20T11:50:19;13.80;;;7.03;;
78648;SDS011;67962;47.310;9.642;2023-12-20T11:52:46;12.88;;;7.15;;
78648;SDS011;67962;47.310;9.642;2023-12-20T11:55:12;12.38;;;7.45;;
78648;SDS011;67962;47.310;9.642;2023-12-20T11:57:38;13.18;;;7.85;;
78648;SDS011;67962;47.310;9.642;2023-12-20T12:00:04;15.13;;;8.05;;
78648;SDS011;67962;47.310;9.642;2023-12-20T12:02:31;12.35;;;7.60;;
78648;SDS011;67962;47.310;9.642;2023-12-20T12:04:57;21.75;;;7.85;;
78648;SDS011;67962;47.310;9.642;2023-12-20T12:07:24;10.82;;;6.38;;
78648;SDS011;67962;47.310;9.642;2023-12-20T12:09:50;10.05;;;6.32;;
78648;SDS011;67962;47.310;9.642;2023-12-20T12:12:16;13.48;;;6.72;;
78648;SDS011;67962;47.310;9.642;2023-12-20T12:14:45;10.25;;;6.57;;
78648;SDS011;67962;47.310;9.642;2023-12-20T12:17:14;13.00;;;7.75;;
78648;SDS011;67962;47.310;9.642;2023-12-20T12:19:41;14.80;;;7.25;;
78648;SDS011;67962;47.310;9.642;2023-12-20T12:22:08;16.23;;;7.30;;
78648;SDS011;67962;47.310;9.642;2023-12-20T12:24:38;12.90;;;7.10;;
78648;SDS011;67962;47.310;9.642;2023-12-20T12:27:10;13.20;;;7.80;;
78648;SDS011;67962;47.310;9.642;2023-12-20T12:29:36;11.55;;;7.68;;
78648;SDS011;67962;47.310;9.642;2023-12-20T12:32:09;13.32;;;7.75;;
78648;SDS011;67962;47.310;9.642;2023-12-20T12:34:37;17.70;;;8.65;;
78648;SDS011;67962;47.310;9.642;2023-12-20T12:37:04;17.05;;;9.07;;
78648;SDS011;67962;47.310;9.642;2023-12-20T12:39:30;16.38;;;9.18;;
78648;SDS011;67962;47.310;9.642;2023-12-20T12:41:56;13.70;;;9.32;;
78648;SDS011;67962;47.310;9.642;2023-12-20T12:44:24;14.15;;;8.70;;
78648;SDS011;67962;47.310;9.642;2023-12-20T12:46:50;16.27;;;8.77;;
78648;SDS011;67962;47.310;9.642;2023-12-20T12:49:18;12.93;;;7.95;;
78648;SDS011;67962;47.310;9.642;2023-12-20T12:51:44;16.48;;;7.55;;
78648;SDS011;67962;47.310;9.642;2023-12-20T12:54:10;11.68;;;7.43;;
78648;SDS011;67962;47.310;9.642;2023-12-20T12:56:38;13.70;;;7.97;;
78648;SDS011;67962;47.310;9.642;2023-12-20T12:59:03;11.00;;;7.25;;
78648;SDS011;67962;47.310;9.642;2023-12-20T13:01:30;14.38;;;8.15;;
78648;SDS011;67962;47.310;9.642;2023-12-20T13:03:56;16.10;;;7.13;;
78648;SDS011;67962;47.310;9.642;2023-12-20T13:06:28;9.32;;;6.32;;
78648;SDS011;67962;47.310;9.642;2023-12-20T13:08:54;10.05;;;6.15;;
78648;SDS011;67962;47.310;9.642;2023-12-20T13:11:20;6.25;;;2.35;;
78648;SDS011;67962;47.310;9.642;2023-12-20T13:13:46;2.67;;;1.10;;
78648;SDS011;67962;47.310;9.642;2023-12-20T13:16:12;9.20;;;5.00;;
78648;SDS011;67962;47.310;9.642;2023-12-20T13:18:38;14.68;;;4.88;;
78648;SDS011;67962;47.310;9.642;2023-12-20T13:21:07;4.22;;;2.30;;
78648;SDS011;67962;47.310;9.642;2023-12-20T13:23:33;5.53;;;3.40;;
78648;SDS011;67962;47.310;9.642;2023-12-20T13:25:59;7.63;;;4.22;;
78648;SDS011;67962;47.310;9.642;2023-12-20T13:28:24;6.13;;;3.42;;
78648;SDS011;67962;47.310;9.642;2023-12-20T13:30:50;2.75;;;1.50;;
78648;SDS011;67962;47.310;9.642;2023-12-20T13:33:16;3.63;;;1.30;;
78648;SDS011;67962;47.310;9.642;2023-12-20T13:35:41;3.72;;;2.22;;
78648;SDS011;67962;47.310;9.642;2023-12-20T13:38:07;3.65;;;2.42;;
78648;SDS011;67962;47.310;9.642;2023-12-20T13:40:33;3.15;;;2.38;;
78648;SDS011;67962;47.310;9.642;2023-12-20T13:42:58;2.50;;;1.58;;
78648;SDS011;67962;47.310;9.642;2023-12-20T13:45:24;2.47;;;1.00;;
78648;SDS011;67962;47.310;9.642;2023-12-20T13:47:50;1.58;;;1.17;;
78648;SDS011;67962;47.310;9.642;2023-12-20T13:50:16;1.13;;;0.80;;
78648;SDS011;67962;47.310;9.642;2023-12-20T13:52:41;1.25;;;0.70;;
78648;SDS011;67962;47.310;9.642;2023-12-20T13:55:07;2.45;;;1.27;;
78648;SDS011;67962;47.310;9.642;2023-12-20T13:57:34;1.77;;;1.25;;
78648;SDS011;67962;47.310;9.642;2023-12-20T14:00:02;1.80;;;0.90;;
78648;SDS011;67962;47.310;9.642;2023-12-20T14:02:30;0.90;;;0.60;;
78648;SDS011;67962;47.310;9.642;2023-12-20T14:04:55;1.40;;;0.70;;
78648;SDS011;67962;47.310;9.642;2023-12-20T14:07:21;1.30;;;0.70;;
78648;SDS011;67962;47.310;9.642;2023-12-20T14:09:47;1.63;;;0.88;;
78648;SDS011;67962;47.310;9.642;2023-12-20T14:12:13;1.83;;;1.42;;
78648;SDS011;67962;47.310;9.642;2023-12-20T14:14:39;1.63;;;1.10;;
78648;SDS011;67962;47.310;9.642;2023-12-20T14:17:05;1.20;;;0.80;;
78648;SDS011;67962;47.310;9.642;2023-12-20T14:19:34;3.17;;;1.85;;
78648;SDS011;67962;47.310;9.642;2023-12-20T14:22:00;1.63;;;1.15;;
78648;SDS011;67962;47.310;9.642;2023-12-20T14:24:26;1.80;;;1.40;;
78648;SDS011;67962;47.310;9.642;2023-12-20T14:26:53;6.47;;;3.53;;
78648;SDS011;67962;47.310;9.642;2023-12-20T14:29:18;2.65;;;1.48;;
78648;SDS011;67962;47.310;9.642;2023-12-20T14:31:44;2.10;;;1.60;;
78648;SDS011;67962;47.310;9.642;2023-12-20T14:34:10;3.72;;;1.80;;